RESQ41 EDLW-XXXX

Flight info

Callsign RESQ41
Flight time N/A
Altitude 2300
Route XXXX
Aircraft EC45/L-X/0034

Departure

Time 2026-05-05 13:51
Airport Dortmund Airport (EDLW)

Arrival

Time N/A
Airport XXXX
Time Latitude Longitude Altitude Speed Heading
2026-05-05 12:46 51.51409 7.61007 434 ft 0 kts 143°
2026-05-05 13:01 51.51444 7.60974 466 ft 11 kts 325°
2026-05-05 13:01 51.51556 7.60853 576 ft 43 kts 326°
2026-05-05 13:01 51.51909 7.60415 768 ft 77 kts 321°
2026-05-05 13:01 51.52322 7.59740 915 ft 92 kts 312°
2026-05-05 13:02 51.52804 7.58979 942 ft 102 kts 321°
2026-05-05 13:02 51.53363 7.58189 938 ft 111 kts 320°
2026-05-05 13:02 51.53953 7.57351 936 ft 118 kts 321°
2026-05-05 13:02 51.54582 7.56449 934 ft 121 kts 320°
2026-05-05 13:03 51.55219 7.55531 934 ft 125 kts 319°
2026-05-05 13:03 51.55860 7.54602 932 ft 125 kts 320°
2026-05-05 13:03 51.56510 7.53662 932 ft 126 kts 320°
2026-05-05 13:03 51.57165 7.52713 932 ft 127 kts 320°
2026-05-05 13:04 51.57834 7.51747 931 ft 129 kts 320°
2026-05-05 13:04 51.58494 7.50792 934 ft 128 kts 321°
2026-05-05 13:04 51.59119 7.49875 990 ft 114 kts 323°
2026-05-05 13:04 51.59683 7.49043 960 ft 106 kts 322°
2026-05-05 13:05 51.60212 7.48270 947 ft 100 kts 324°
2026-05-05 13:05 51.60721 7.47542 937 ft 95 kts 327°
2026-05-05 13:05 51.61273 7.47003 819 ft 92 kts 331°
2026-05-05 13:05 51.61646 7.46182 687 ft 94 kts 287°
2026-05-05 13:06 51.61915 7.45403 582 ft 76 kts 351°
2026-05-05 13:06 51.62131 7.45935 453 ft 76 kts 125°
2026-05-05 13:06 51.61630 7.45910 444 ft 67 kts 218°
2026-05-05 13:06 51.61639 7.45715 522 ft 35 kts 63°
2026-05-05 13:07 51.61669 7.46059 437 ft 22 kts 25°
2026-05-05 13:07 51.61777 7.46120 264 ft 10 kts 17°
2026-05-05 13:07 51.61813 7.46114 219 ft 3 kts 105°
2026-05-05 13:07 51.61785 7.46136 176 ft 1 kts 189°
2026-05-05 13:08 51.61777 7.46145 181 ft 3 kts 247°
2026-05-05 13:08 51.61773 7.46131 166 ft 0 kts 244°
2026-05-05 13:23 51.61772 7.46131 177 ft 2 kts 348°
2026-05-05 13:23 51.61804 7.46131 199 ft 3 kts 309°
2026-05-05 13:23 51.61799 7.46165 254 ft 6 kts 281°
2026-05-05 13:23 51.61859 7.45952 365 ft 68 kts 283°
2026-05-05 13:24 51.62072 7.45012 355 ft 103 kts 286°
2026-05-05 13:24 51.62330 7.43995 586 ft 94 kts 291°
2026-05-05 13:24 51.62584 7.43076 837 ft 86 kts 297°
2026-05-05 13:24 51.62845 7.42128 824 ft 99 kts 298°
2026-05-05 13:25 51.63132 7.41066 798 ft 109 kts 297°
2026-05-05 13:25 51.63337 7.40301 795 ft 115 kts 297°
2026-05-05 13:25 51.63664 7.39078 785 ft 123 kts 296°
2026-05-05 13:25 51.64007 7.37783 780 ft 129 kts 298°
2026-05-05 13:26 51.64488 7.35979 780 ft 134 kts 296°
2026-05-05 13:26 51.64734 7.35051 796 ft 132 kts 296°
2026-05-05 13:26 51.65073 7.33720 803 ft 125 kts 295°
2026-05-05 13:26 51.65335 7.32412 797 ft 121 kts 289°
2026-05-05 13:27 51.65510 7.31108 797 ft 117 kts 282°
2026-05-05 13:27 51.65614 7.29817 788 ft 114 kts 282°
2026-05-05 13:27 51.65751 7.28584 767 ft 109 kts 293°
2026-05-05 13:27 51.66151 7.27642 754 ft 100 kts 326°
2026-05-05 13:28 51.66761 7.27168 766 ft 97 kts 341°
2026-05-05 13:28 51.67377 7.26768 749 ft 94 kts 341°
2026-05-05 13:28 51.67973 7.26284 645 ft 99 kts 331°
2026-05-05 13:28 51.68425 7.25406 597 ft 106 kts 303°
2026-05-05 13:29 51.68710 7.24371 578 ft 94 kts 308°
2026-05-05 13:29 51.69143 7.23709 558 ft 81 kts 338°
2026-05-05 13:29 51.69655 7.23641 573 ft 72 kts
2026-05-05 13:29 51.70034 7.23206 558 ft 81 kts 277°
2026-05-05 13:30 51.69702 7.22783 648 ft 58 kts 147°
2026-05-05 13:30 51.69623 7.23132 671 ft 15 kts 77°
2026-05-05 13:30 51.69674 7.23307 582 ft 18 kts 73°
2026-05-05 13:30 51.69685 7.23447 466 ft 8 kts 75°
2026-05-05 13:31 51.69692 7.23474 462 ft 0 kts 79°
2026-05-05 13:31 51.69684 7.23493 504 ft 0 kts 77°
2026-05-05 13:31 51.69676 7.23517 514 ft 8 kts 77°
2026-05-05 13:31 51.69691 7.23621 518 ft 9 kts 76°
2026-05-05 13:32 51.69706 7.23681 468 ft 7 kts 169°
2026-05-05 13:32 51.69653 7.23681 434 ft 6 kts 259°
2026-05-05 13:32 51.69645 7.23683 434 ft 4 kts 262°
2026-05-05 13:32 51.69651 7.23612 591 ft 2 kts 261°
2026-05-05 13:33 51.69639 7.23582 622 ft 13 kts 262°
2026-05-05 13:33 51.69635 7.23525 584 ft 5 kts 259°
2026-05-05 13:33 51.69641 7.23453 568 ft 6 kts 262°
2026-05-05 13:33 51.69642 7.23410 502 ft 3 kts 262°
2026-05-05 13:34 51.69643 7.23430 560 ft 4 kts 261°
2026-05-05 13:34 51.69642 7.23418 534 ft 3 kts 259°
2026-05-05 13:34 51.69643 7.23418 447 ft 6 kts 257°
2026-05-05 13:34 51.69643 7.23419 541 ft 6 kts 257°
2026-05-05 13:35 51.69642 7.23407 470 ft 6 kts 257°
2026-05-05 13:35 51.69642 7.23419 453 ft 4 kts 257°
2026-05-05 13:35 51.69643 7.23402 481 ft 2 kts 257°
2026-05-05 13:35 51.69658 7.23439 790 ft 3 kts 258°
2026-05-05 13:36 51.69680 7.23051 790 ft 71 kts 282°
2026-05-05 13:36 51.70140 7.22541 696 ft 94 kts
2026-05-05 13:36 51.70252 7.23380 599 ft 106 kts 141°
2026-05-05 13:36 51.69900 7.22936 680 ft 76 kts 290°
2026-05-05 13:37 51.69705 7.22173 888 ft 71 kts 190°
2026-05-05 13:37 51.69594 7.22469 903 ft 56 kts 21°
2026-05-05 13:37 51.69899 7.22624 831 ft 43 kts 78°
2026-05-05 13:37 51.69883 7.23026 629 ft 28 kts 91°
2026-05-05 13:38 51.69837 7.23207 389 ft 9 kts 100°
2026-05-05 13:38 51.69819 7.23233 356 ft 4 kts 85°
2026-05-05 13:38 51.69820 7.23242 316 ft 0 kts 78°
2026-05-05 13:44 51.69821 7.23243 317 ft 1 kts 78°
2026-05-05 13:45 51.69809 7.23247 371 ft 4 kts 73°
2026-05-05 13:45 51.69800 7.23265 474 ft 7 kts 118°
2026-05-05 13:45 51.69759 7.23336 492 ft 11 kts 117°
2026-05-05 13:45 51.69733 7.23437 521 ft 9 kts 117°
2026-05-05 13:46 51.69705 7.23507 523 ft 5 kts 118°
2026-05-05 13:46 51.69710 7.23511 567 ft 3 kts 117°
2026-05-05 13:46 51.69721 7.23521 583 ft 6 kts 118°
2026-05-05 13:46 51.69665 7.23550 484 ft 6 kts 126°
2026-05-05 13:47 51.69655 7.23561 485 ft 3 kts 126°
2026-05-05 13:47 51.69669 7.23566 447 ft 2 kts 127°
2026-05-05 13:47 51.69668 7.23558 581 ft 3 kts 123°
2026-05-05 13:47 51.69677 7.23537 412 ft 9 kts 122°
2026-05-05 13:48 51.69675 7.23501 466 ft 3 kts 121°
2026-05-05 13:48 51.69687 7.23495 491 ft 1 kts 121°
2026-05-05 13:48 51.69684 7.23504 460 ft 0 kts 121°
2026-05-05 13:48 51.69683 7.23504 461 ft 0 kts 121°
2026-05-05 13:49 51.69684 7.23505 461 ft 0 kts 121°
2026-05-05 13:49 51.69683 7.23505 455 ft 0 kts 122°
2026-05-05 13:49 51.69683 7.23504 459 ft 0 kts 121°
2026-05-05 13:50 51.69683 7.23511 475 ft 1 kts 121°
2026-05-05 13:50 51.69685 7.23517 459 ft 0 kts 121°
2026-05-05 13:50 51.69685 7.23515 456 ft 0 kts 121°
2026-05-05 13:51 51.69683 7.23510 485 ft 1 kts 118°
2026-05-05 13:51 51.69672 7.23491 792 ft 11 kts 118°
2026-05-05 13:51 51.69451 7.23898 1142 ft 67 kts 121°
2026-05-05 13:51 51.68838 7.24115 1040 ft 112 kts 175°
2026-05-05 13:52 51.67976 7.23915 751 ft 136 kts 188°
2026-05-05 13:52 51.67005 7.23654 549 ft 148 kts 187°
2026-05-05 13:52 51.66026 7.23416 684 ft 138 kts 186°
2026-05-05 13:52 51.65085 7.23224 738 ft 131 kts 184°
2026-05-05 13:53 51.64208 7.23075 755 ft 125 kts 183°
2026-05-05 13:53 51.63363 7.22948 755 ft 119 kts 182°
2026-05-05 13:53 51.62551 7.22833 763 ft 115 kts 181°
2026-05-05 13:53 51.61768 7.22732 772 ft 110 kts 180°
2026-05-05 13:54 51.61019 7.22639 746 ft 106 kts 181°
2026-05-05 13:54 51.60288 7.22545 762 ft 105 kts 180°
2026-05-05 13:54 51.59570 7.22461 769 ft 102 kts 181°
2026-05-05 13:54 51.58876 7.22382 761 ft 99 kts 181°
2026-05-05 13:55 51.58184 7.22302 749 ft 102 kts 181°
2026-05-05 13:55 51.57451 7.22218 750 ft 109 kts 182°
2026-05-05 13:55 51.56672 7.22130 754 ft 115 kts 180°
2026-05-05 13:55 51.55856 7.22043 754 ft 118 kts 180°
2026-05-05 13:56 51.55023 7.21951 742 ft 122 kts 180°
2026-05-05 13:56 51.54164 7.21857 762 ft 125 kts 182°
2026-05-05 13:56 51.53299 7.21765 751 ft 128 kts 178°
2026-05-05 13:56 51.52400 7.21671 757 ft 130 kts 181°
2026-05-05 13:57 51.51497 7.21572 737 ft 131 kts 180°
2026-05-05 13:57 51.50571 7.21469 757 ft 135 kts 181°
2026-05-05 13:57 51.49630 7.21370 685 ft 134 kts 181°
2026-05-05 13:57 51.48732 7.21377 669 ft 123 kts 167°
2026-05-05 13:58 51.47943 7.21583 829 ft 111 kts 178°
2026-05-05 13:58 51.47219 7.21290 965 ft 103 kts 194°
2026-05-05 13:58 51.46615 7.21460 908 ft 84 kts 154°
2026-05-05 13:58 51.46244 7.21217 671 ft 38 kts 314°
2026-05-05 13:59 51.46709 7.21041 588 ft 38 kts 355°
2026-05-05 13:59 51.46769 7.21035 613 ft 27 kts